Flight Track Log - Related Links

Times and Time Zones

All times are in EDT time to prevent confusion due to time zone crossing. See the GJS3710 flight status page for this flight to view local times or setup timezone preferences in your user account.

Time Position Orientation Groundspeed Altitude Reporting Facility
EDT Latitude Longitude Course Direction KTS MPH feet Rate Location/Type
Fri 04:38:14 PM 30.1639 -97.7533 326° Northwest 242 278 4,900  Level Houston Center
Fri 04:39:00 PM 30.5520 -97.6497 323° Northwest  Level FlightAware Approximate
Fri 04:39:16 PM 30.2367 -97.7861 339° North 276 318 7,500  Level Houston Center
Fri 04:40:00 PM 30.6420 -97.7284 323° Northwest  Level FlightAware Approximate
Fri 04:40:18 PM 30.3136 -97.8139 343° North 284 327 10,200  Level Houston Center
Fri 04:41:00 PM 30.7363 -97.7986 326° Northwest  Level FlightAware Approximate
Fri 04:41:20 PM 30.3958 -97.8444 342° North 298 343 11,700  Level Houston Center
Fri 04:42:00 PM 30.8349 -97.8751 326° Northwest  Level FlightAware Approximate
Fri 04:42:22 PM 30.4894 -97.8800 342° North 335 386 13,100  Level Houston Center
Fri 04:43:00 PM 30.9335 -97.9518 326° Northwest  Level FlightAware Approximate
Fri 04:43:25 PM 30.6094 -97.9256 342° North 374 430 14,600  Level Houston Center
Fri 04:44:27 PM 30.7175 -97.9658 342° North 393 452 16,400 2,177 Climbing Houston Center
Fri 04:45:29 PM 30.8244 -98.0056 342° North 397 457 19,100 2,419 Climbing Houston Center
Fri 04:46:31 PM 30.9278 -98.0453 342° North 379 436 21,400 1,869 Climbing Fort Worth Center
Fri 04:47:31 PM 31.0278 -98.0847 341° North 379 436 22,900 1,700 Climbing Fort Worth Center
Fri 04:48:31 PM 31.1297 -98.1244 342° North 379 436 24,800 1,950 Climbing Fort Worth Center
Fri 04:49:31 PM 31.2342 -98.1178 North 379 436 26,800 1,500 Climbing Fort Worth Center
Fri 04:50:31 PM 31.3369 -98.0603 26° Northeast 379 436 27,800 1,050 Climbing Fort Worth Center
Fri 04:51:31 PM 31.4394 -98.0025 26° Northeast 401 461 28,900 950 Climbing Fort Worth Center
Fri 04:52:31 PM 31.5358 -97.9494 25° Northeast 407 468 29,700 900 Climbing Fort Worth Center
Fri 04:53:31 PM 31.6444 -97.8867 26° Northeast 420 483 30,700 1,050 Climbing Fort Worth Center
Fri 04:54:31 PM 31.7533 -97.8311 23° Northeast 428 493 31,800 1,050 Climbing Fort Worth Center
Fri 04:55:31 PM 31.8642 -97.7656 27° Northeast 428 493 32,800 750 Climbing Fort Worth Center
Fri 04:56:31 PM 31.9833 -97.6975 26° Northeast 427 491 33,300 500 Climbing Fort Worth Center
Fri 04:57:31 PM 32.1003 -97.6317 25° Northeast 443 510 33,800 500 Climbing Fort Worth Center
Fri 04:58:31 PM 32.2028 -97.5731 26° Northeast 450 518 34,300 700 Climbing Fort Worth Center
Fri 04:59:31 PM 32.3239 -97.5067 25° Northeast 461 531 35,200 350 Climbing Fort Worth Center
Fri 05:00:31 PM 32.4408 -97.4406 26° Northeast 467 537 35,000 -100 Descending Fort Worth Center
Fri 05:01:31 PM 32.5600 -97.3714 26° Northeast 467 537 35,000  Level Fort Worth Center
Fri 05:02:31 PM 32.6767 -97.3022 27° Northeast 462 532 35,000  Level Fort Worth Center
Fri 05:03:31 PM 32.7956 -97.2331 26° Northeast 467 537 35,000  Level Fort Worth Center
Fri 05:04:31 PM 32.9269 -97.1561 26° Northeast 472 543 35,000  Level Fort Worth Center
Fri 05:05:31 PM 33.0375 -97.0764 31° Northeast 484 557 35,000  Level Fort Worth Center
Fri 05:06:31 PM 33.1542 -96.9967 30° Northeast 491 565 35,000  Level Fort Worth Center
Fri 05:07:31 PM 33.2708 -96.9164 30° Northeast 474 545 35,000  Level Fort Worth Center
Fri 05:08:31 PM 33.3853 -96.8364 30° Northeast 480 552 35,000  Level Fort Worth Center
Fri 05:09:31 PM 33.5058 -96.7508 31° Northeast 490 564 35,000  Level Fort Worth Center
Fri 05:10:31 PM 33.6244 -96.6675 30° Northeast 490 564 35,000  Level Fort Worth Center
Fri 05:11:31 PM 33.7553 -96.5742 31° Northeast 490 564 35,000  Level Fort Worth Center
Fri 05:12:31 PM 33.8778 -96.4878 30° Northeast 495 570 35,000 500 Level Fort Worth Center
Fri 05:13:31 PM 33.9981 -96.4014 31° Northeast 495 570 36,000 950 Climbing Fort Worth Center
Fri 05:14:31 PM 34.0936 -96.3325 31° Northeast 495 570 36,900 500 Climbing Fort Worth Center
Fri 05:15:31 PM 34.2158 -96.2431 31° Northeast 482 555 37,000 50 Climbing Fort Worth Center
Fri 05:16:31 PM 34.3486 -96.1458 31° Northeast 493 567 37,000  Level Fort Worth Center
Fri 05:17:31 PM 34.4667 -96.0608 31° Northeast 493 567 37,000  Level Fort Worth Center
Fri 05:18:31 PM 34.5803 -95.9783 31° Northeast 487 560 37,000 250 Level Fort Worth Center
Fri 05:19:31 PM 34.6961 -95.8931 31° Northeast 487 560 37,500 600 Climbing Fort Worth Center
Fri 05:20:31 PM 34.8119 -95.8100 30° Northeast 487 560 38,200 650 Climbing Fort Worth Center
Fri 05:21:31 PM 34.9233 -95.7194 34° Northeast 487 560 38,800 400 Climbing Fort Worth Center
Fri 05:22:31 PM 35.0264 -95.6183 39° Northeast 482 555 39,000 100 Climbing Fort Worth Center
Fri 05:23:31 PM 35.1314 -95.5222 37° Northeast 476 548 39,000  Level Fort Worth Center
Fri 05:25:09 PM 35.3078 -95.3542 38° Northeast 500 575 39,000  Level Memphis Center
Fri 05:26:09 PM 35.4161 -95.2536 37° Northeast 500 575 39,000  Level Memphis Center
Fri 05:27:09 PM 35.5244 -95.1478 38° Northeast 495 570 39,000  Level Memphis Center
Fri 05:28:09 PM 35.6328 -95.0417 39° Northeast 495 570 39,000  Level Memphis Center
Fri 05:29:09 PM 35.7408 -94.9378 38° Northeast 495 570 39,000  Level Memphis Center
Fri 05:30:09 PM 35.8489 -94.8336 38° Northeast 495 570 39,000  Level Memphis Center
Fri 05:31:09 PM 35.9592 -94.7267 38° Northeast 495 570 39,000  Level Memphis Center
Fri 05:32:09 PM 36.0650 -94.6194 39° Northeast 495 570 39,000  Level Memphis Center
Fri 05:33:09 PM 36.1747 -94.5144 38° Northeast 495 570 39,000  Level Memphis Center
Fri 05:34:09 PM 36.2806 -94.4067 39° Northeast 490 564 39,000  Level Memphis Center
Fri 05:35:32 PM 36.4286 -94.2650 38° Northeast 493 567 39,000  Level Kansas City Center
Fri 05:36:36 PM 36.5358 -94.1589 38° Northeast 493 567 39,000  Level Kansas City Center
Fri 05:37:36 PM 36.6422 -94.0536 38° Northeast 491 565 39,000  Level Kansas City Center
Fri 05:38:40 PM 36.7494 -93.9472 38° Northeast 491 565 39,000  Level Kansas City Center
Fri 05:39:41 PM 36.8617 -93.8539 34° Northeast 485 558 39,000  Level Kansas City Center
Fri 05:40:44 PM 36.9806 -93.7878 24° Northeast 470 541 39,000  Level Kansas City Center
Fri 05:41:45 PM 37.1097 -93.7181 23° Northeast 472 543 39,000  Level Kansas City Center
Fri 05:42:48 PM 37.2317 -93.6494 24° Northeast 476 548 39,000  Level Kansas City Center
Fri 05:43:49 PM 37.3778 -93.5683 24° Northeast 476 548 39,000  Level Kansas City Center
Fri 05:44:50 PM 37.4975 -93.4928 27° Northeast 479 551 39,000  Level Kansas City Center
Fri 05:45:54 PM 37.6183 -93.4183 26° Northeast 479 551 39,000  Level Kansas City Center
Fri 05:46:54 PM 37.7211 -93.3053 41° Northeast 483 556 39,000  Level Kansas City Center
Fri 05:47:58 PM 37.8264 -93.1925 40° Northeast 490 564 39,000  Level Kansas City Center
Fri 05:48:59 PM 37.9314 -93.0803 40° Northeast 490 564 39,000  Level Kansas City Center
Fri 05:50:00 PM 38.0381 -92.9658 40° Northeast 495 570 39,000  Level Kansas City Center
Fri 05:51:04 PM 38.1433 -92.8494 41° Northeast 495 570 39,000  Level Kansas City Center
Fri 05:52:04 PM 38.2503 -92.7347 40° Northeast 495 570 39,000  Level Kansas City Center
Fri 05:53:08 PM 38.3767 -92.5925 41° Northeast 497 572 39,000  Level Kansas City Center
Fri 05:54:09 PM 38.4833 -92.4742 41° Northeast 499 574 39,000  Level Kansas City Center
Fri 05:55:12 PM 38.5892 -92.3575 41° Northeast 499 574 39,000  Level Kansas City Center
Fri 05:56:13 PM 38.6933 -92.2389 42° Northeast 498 573 39,000  Level Kansas City Center
Fri 05:57:17 PM 38.7983 -92.1217 41° Northeast 498 573 39,000  Level Kansas City Center
Fri 05:58:17 PM 38.9025 -92.0044 41° Northeast 496 571 39,000  Level Kansas City Center
Fri 05:59:19 PM 39.0078 -91.8847 41° Northeast 499 574 39,000  Level Kansas City Center
Fri 06:00:22 PM 39.1125 -91.7664 41° Northeast 499 574 39,000 -48 Level Kansas City Center
Fri 06:01:23 PM 39.2200 -91.6442 41° Northeast 499 574 38,900 -624 Descending Kansas City Center
Fri 06:02:27 PM 39.3272 -91.5231 41° Northeast 506 582 37,700 -1,065 Descending Kansas City Center
Fri 06:03:27 PM 39.4561 -91.3753 41° Northeast 512 589 36,700 -1,024 Descending Kansas City Center
Fri 06:04:30 PM 39.5656 -91.2494 42° Northeast 518 596 35,600 -945 Descending Kansas City Center
Fri 06:05:34 PM 39.6767 -91.1214 42° Northeast 524 603 34,700 -919 Descending Kansas City Center
Fri 06:06:34 PM 39.7850 -91.0039 40° Northeast 522 601 33,700 -823 Descending Kansas City Center
Fri 06:07:38 PM 39.9053 -90.8858 37° Northeast 512 589 33,000 -339 Descending Kansas City Center
Fri 06:08:38 PM 40.0167 -90.7728 38° Northeast 508 585 33,000  Level Kansas City Center
Fri 06:09:42 PM 40.1286 -90.6572 38° Northeast 511 588 33,000  Level Kansas City Center
Fri 06:10:04 PM 40.1869 -90.6000 37° Northeast 516 594 33,000  Level Chicago Center
Fri 06:11:06 PM 40.3111 -90.4731 38° Northeast 516 594 33,000  Level Chicago Center
Fri 06:12:08 PM 40.4256 -90.3553 38° Northeast 521 600 33,000 -339 Level Chicago Center
Fri 06:13:10 PM 40.5350 -90.2431 38° Northeast 517 595 32,300 -1,113 Descending Chicago Center
Fri 06:14:12 PM 40.6461 -90.1286 38° Northeast 510 587 30,700 -1,694 Descending Chicago Center
Fri 06:15:14 PM 40.7758 -89.9942 38° Northeast 496 571 28,800 -1,887 Descending Chicago Center
Fri 06:16:16 PM 40.8803 -89.8869 38° Northeast 477 549 26,800 -1,935 Descending Chicago Center
Fri 06:17:18 PM 40.9756 -89.7864 39° Northeast 444 511 24,800 -1,355 Descending Chicago Center
Fri 06:18:20 PM 41.0603 -89.6958 39° Northeast 423 487 24,000 -387 Descending Chicago Center
Fri 06:19:22 PM 41.1506 -89.5983 39° Northeast 417 480 24,000 -919 Level Chicago Center
Fri 06:20:24 PM 41.2239 -89.4317 60° Northeast 435 501 22,100 -2,016 Descending Chicago Center
Fri 06:21:27 PM 41.2800 -89.2947 61° Northeast 424 488 19,800 -2,016 Descending Chicago Center
Fri 06:22:29 PM 41.3325 -89.1611 62° Northeast 398 458 17,900 -1,984 Descending Chicago Center
Fri 06:23:31 PM 41.3817 -89.0394 62° Northeast 379 436 15,700 -2,129 Descending Chicago Center
Fri 06:24:33 PM 41.4294 -88.9219 61° Northeast 366 421 13,500 -1,887 Descending Chicago Center
Fri 06:25:35 PM 41.4742 -88.8067 63° Northeast 352 405 11,800 -1,210 Descending Chicago Center
Fri 06:26:37 PM 41.5253 -88.6767 62° Northeast 333 383 11,000 -387 Descending Chicago Center
Fri 06:27:39 PM 41.5683 -88.5658 63° Northeast 334 384 11,000  Level Chicago Center
Fri 06:28:41 PM 41.6153 -88.4567 60° Northeast 338 389 11,000 -339 Level Chicago Center
Fri 06:29:43 PM 41.6742 -88.3558 52° Northeast 343 395 10,300 -532 Descending Chicago Center
Fri 06:30:45 PM 41.7336 -88.2536 52° Northeast 348 400 9,900 -581 Descending Chicago Center
Fri 06:31:47 PM 41.7864 -88.1642 52° Northeast 312 359 9,100 -774 Descending Chicago Center
Fri 06:32:49 PM 41.8364 -88.0767 52° Northeast 298 343 8,300 -726 Descending Chicago Center
Fri 06:33:51 PM 41.8833 -87.9594 62° Northeast 298 343 7,600 -623 Descending Chicago Center
Fri 06:34:06 PM 41.9000 -87.9333 49° Northeast 258 297 7,500 -444 Descending Chicago TRACON
Fri 06:35:12 PM 41.9167 -87.8667 71° East 221 254 7,000 -250 Descending Chicago TRACON
Fri 06:36:06 PM 41.9500 -87.8000 56° Northeast 213 245 7,000  Level Chicago TRACON
Fri 06:37:06 PM 41.9833 -87.7333 56° Northeast 210 242 7,000 -333 Level Chicago TRACON
Fri 06:38:12 PM 42.0333 -87.6833 37° Northeast 210 242 6,300 -803 Descending Chicago TRACON
Fri 06:39:13 PM 42.0833 -87.6500 26° Northeast 218 251 5,300 -939 Descending Chicago TRACON
Fri 06:40:07 PM 42.1000 -87.7000 294° West 175 201 4,500 -1,000 Descending Chicago TRACON
Fri 06:41:07 PM 42.0667 -87.7500 228° Southwest 168 193 3,400 -950 Descending Chicago TRACON
Fri 06:42:07 PM 42.0500 -87.8000 246° West 153 176 2,600 -762 Descending Chicago TRACON
Fri 06:43:13 PM 42.0167 -87.8333 217° Southwest 121 139 1,800 -667 Descending Chicago TRACON
Fri 06:44:13 PM 41.9833 -87.8667 217° Southwest 123 142 1,200 -600 Descending Chicago TRACON

Login

Don't have an account? Register now (free) for customized features, flight alerts, and more!